Аэропорт: Основа. Харьков

ICAO: UKHH

METAR:
2019-09-21 16:00:00
UKHH 211600Z 30004MPS CAVOK 10/00 Q1017 R25/0///81 NOSIG
METAR:
2019-09-21 11:10:00
TAF UKHH 211110Z 2112/2212 27003MPS 9999 BKN015 TEMPO 2112/2116 30006G12MPS -SHRA BKN007 BKN020CB BECMG 2200/2202 23006MPS 2100 -SHRA BR BKN007 SCT020CB TEMPO 2204/2212 27010G17MPS